createdAt,value
2023-04-12T00:00:00.799Z,19.60
2023-04-12T00:02:34.843Z,19.70
2023-04-12T00:05:07.883Z,19.70
2023-04-12T00:07:45.794Z,19.70
2023-04-12T00:10:18.819Z,19.70
2023-04-12T00:12:53.340Z,19.80
2023-04-12T00:15:26.198Z,19.80
2023-04-12T00:17:59.100Z,19.80
2023-04-12T00:20:32.442Z,19.80
2023-04-12T00:23:05.680Z,19.80
2023-04-12T00:25:39.785Z,19.80
2023-04-12T00:28:12.631Z,19.90
2023-04-12T00:30:45.642Z,19.90
2023-04-12T00:33:18.572Z,19.90
2023-04-12T00:35:51.466Z,19.90
2023-04-12T00:38:25.145Z,19.90
2023-04-12T00:40:58.076Z,19.90
2023-04-12T00:43:31.446Z,19.90
2023-04-12T00:46:05.104Z,19.90
2023-04-12T00:48:38.554Z,19.90
2023-04-12T00:51:14.203Z,19.90
2023-04-12T00:53:47.816Z,19.90
2023-04-12T00:56:21.910Z,19.90
2023-04-12T00:58:54.822Z,19.80
2023-04-12T01:01:28.377Z,19.80
2023-04-12T01:04:02.490Z,19.80
2023-04-12T01:06:56.828Z,19.80
2023-04-12T01:09:48.533Z,19.90
2023-04-12T01:12:52.526Z,19.90
2023-04-12T01:15:30.065Z,20.00
2023-04-12T01:18:08.206Z,20.00
2023-04-12T01:20:50.358Z,20.00
2023-04-12T01:23:30.850Z,20.10
2023-04-12T01:26:22.000Z,20.10
2023-04-12T01:28:56.650Z,20.20
2023-04-12T01:31:32.065Z,20.20
2023-04-12T01:34:06.706Z,20.30
2023-04-12T01:36:40.968Z,20.40
2023-04-12T01:39:14.466Z,20.40
2023-04-12T01:41:51.021Z,20.40
2023-04-12T01:44:24.173Z,20.40
2023-04-12T01:46:57.099Z,20.40
2023-04-12T01:49:32.232Z,20.40
2023-04-12T01:52:07.616Z,20.40
2023-04-12T01:54:42.370Z,20.40
2023-04-12T01:57:16.801Z,20.40
2023-04-12T01:59:50.987Z,20.40
2023-04-12T02:02:24.959Z,20.40
2023-04-12T02:04:59.027Z,20.40
2023-04-12T02:07:38.842Z,20.40
2023-04-12T02:10:13.127Z,20.40
2023-04-12T02:12:46.112Z,20.40
2023-04-12T02:15:19.251Z,20.40
2023-04-12T02:17:53.393Z,20.40
2023-04-12T02:20:29.452Z,20.40
2023-04-12T02:23:03.069Z,20.40
2023-04-12T02:25:37.459Z,20.40
2023-04-12T02:28:11.101Z,20.40
2023-04-12T02:30:44.292Z,20.40
2023-04-12T02:33:17.697Z,20.30
2023-04-12T02:35:50.832Z,20.30
2023-04-12T02:38:25.219Z,20.30
2023-04-12T02:40:58.491Z,20.30
2023-04-12T02:43:31.225Z,20.30
2023-04-12T02:46:04.213Z,20.30
2023-04-12T02:48:37.032Z,20.30
2023-04-12T02:51:10.341Z,20.40
2023-04-12T02:53:43.683Z,20.30
2023-04-12T02:56:16.564Z,20.30
2023-04-12T02:58:49.463Z,20.30
2023-04-12T03:01:22.777Z,20.30
2023-04-12T03:03:55.962Z,20.30
2023-04-12T03:06:29.476Z,20.30
2023-04-12T03:09:02.620Z,20.30
2023-04-12T03:11:35.734Z,20.30
2023-04-12T03:14:08.880Z,20.30
2023-04-12T03:16:41.844Z,20.30
2023-04-12T03:19:16.123Z,20.30
2023-04-12T03:21:49.107Z,20.30
2023-04-12T03:24:22.414Z,20.30
2023-04-12T03:26:55.118Z,20.30
2023-04-12T03:29:28.062Z,20.30
2023-04-12T03:32:01.614Z,20.30
2023-04-12T03:34:37.931Z,20.30
2023-04-12T03:37:10.876Z,20.30
2023-04-12T03:39:43.771Z,20.30
2023-04-12T03:42:31.839Z,20.30
2023-04-12T03:44:50.797Z,20.30
2023-04-12T03:47:23.753Z,20.30
2023-04-12T03:50:11.151Z,20.30
2023-04-12T03:52:31.703Z,20.20
2023-04-12T03:55:08.047Z,20.20
2023-04-12T03:57:41.118Z,20.20
2023-04-12T04:00:15.378Z,20.20
2023-04-12T04:02:49.166Z,20.30
2023-04-12T04:05:22.106Z,20.30
2023-04-12T04:07:57.976Z,20.30
2023-04-12T04:10:31.227Z,20.30
2023-04-12T04:13:04.251Z,20.30
2023-04-12T04:15:37.206Z,20.30
2023-04-12T04:18:10.175Z,20.30
2023-04-12T04:20:43.898Z,20.30
2023-04-12T04:23:17.226Z,20.30
2023-04-12T04:25:50.865Z,20.30
2023-04-12T04:28:24.056Z,20.30
2023-04-12T04:30:57.573Z,20.20
2023-04-12T04:33:30.328Z,20.20
2023-04-12T04:36:03.726Z,20.20
2023-04-12T04:38:36.719Z,20.20
2023-04-12T04:41:11.170Z,20.20
2023-04-12T04:43:44.652Z,20.10
2023-04-12T04:46:17.894Z,20.10
2023-04-12T04:48:51.315Z,20.10
2023-04-12T04:51:24.172Z,20.10
2023-04-12T04:53:57.595Z,20.00
2023-04-12T04:56:31.216Z,20.00
2023-04-12T04:59:04.293Z,20.00
2023-04-12T05:01:38.716Z,20.00
2023-04-12T05:04:11.968Z,20.00
2023-04-12T05:06:45.065Z,20.00
2023-04-12T05:09:18.964Z,19.90
2023-04-12T05:11:51.856Z,19.90
2023-04-12T05:14:33.810Z,19.90
2023-04-12T05:16:59.099Z,19.90
2023-04-12T05:19:31.882Z,19.90
2023-04-12T05:22:04.983Z,19.80
2023-04-12T05:24:39.165Z,19.80
2023-04-12T05:27:12.489Z,19.80
2023-04-12T05:30:04.630Z,19.80
2023-04-12T05:32:36.457Z,19.80
2023-04-12T05:35:09.649Z,19.80
2023-04-12T05:37:42.846Z,19.80
2023-04-12T05:40:16.078Z,19.70
2023-04-12T05:42:48.690Z,19.70
2023-04-12T05:45:21.830Z,19.70
2023-04-12T05:47:55.152Z,19.70
2023-04-12T05:50:28.028Z,19.70
2023-04-12T05:53:00.783Z,19.60
2023-04-12T05:55:34.908Z,19.60
2023-04-12T05:58:08.374Z,19.60
2023-04-12T06:00:43.596Z,19.60
2023-04-12T06:03:17.401Z,19.50
2023-04-12T06:05:50.718Z,19.50
2023-04-12T06:08:23.694Z,19.50
2023-04-12T06:10:57.055Z,19.50
2023-04-12T06:13:30.136Z,19.50
2023-04-12T06:16:03.451Z,19.50
2023-04-12T06:18:36.390Z,19.50
2023-04-12T06:21:09.442Z,19.50
2023-04-12T06:23:42.243Z,19.40
2023-04-12T06:26:17.271Z,19.40
2023-04-12T06:28:50.752Z,19.40
2023-04-12T06:31:24.184Z,19.40
2023-04-12T06:33:57.441Z,19.40
2023-04-12T06:36:30.487Z,19.40
2023-04-12T06:39:03.370Z,19.40
2023-04-12T06:41:36.243Z,19.40
2023-04-12T06:44:09.042Z,19.30
2023-04-12T06:46:42.914Z,19.30
2023-04-12T06:49:16.069Z,19.30
2023-04-12T06:51:49.622Z,19.30
2023-04-12T06:54:22.729Z,19.30
2023-04-12T06:56:55.900Z,19.30
2023-04-12T06:59:28.737Z,19.30
2023-04-12T07:02:02.553Z,19.30
2023-04-12T07:04:35.519Z,19.20
2023-04-12T07:07:08.535Z,19.20
2023-04-12T07:09:41.642Z,19.20
2023-04-12T07:12:21.218Z,19.20
2023-04-12T07:14:54.687Z,19.20
2023-04-12T07:17:29.232Z,19.20
2023-04-12T07:20:02.727Z,19.10
2023-04-12T07:22:35.940Z,19.10
2023-04-12T07:25:10.802Z,19.10
2023-04-12T07:27:44.915Z,19.10
2023-04-12T07:30:18.715Z,19.10
2023-04-12T07:32:52.046Z,19.10
2023-04-12T07:35:25.383Z,19.10
2023-04-12T07:37:58.808Z,19.10
2023-04-12T07:40:31.789Z,19.10
2023-04-12T07:43:05.122Z,19.00
2023-04-12T07:45:39.483Z,19.00
2023-04-12T07:48:13.783Z,19.00
2023-04-12T07:50:46.865Z,19.00
2023-04-12T07:53:30.752Z,18.90
2023-04-12T07:56:04.766Z,18.90
2023-04-12T07:58:38.342Z,18.90
2023-04-12T08:01:11.698Z,18.90
2023-04-12T08:03:44.886Z,18.90
2023-04-12T08:06:19.209Z,18.80
2023-04-12T08:08:52.004Z,18.80
2023-04-12T08:11:25.010Z,18.80
2023-04-12T08:13:58.255Z,18.80
2023-04-12T08:16:31.587Z,18.70
2023-04-12T08:19:05.182Z,18.70
2023-04-12T08:21:38.259Z,18.70
2023-04-12T08:24:11.713Z,18.70
2023-04-12T08:26:44.437Z,18.70
2023-04-12T08:29:18.453Z,18.70
2023-04-12T08:31:52.051Z,18.70
2023-04-12T08:34:26.149Z,18.60
2023-04-12T08:37:00.287Z,18.60
2023-04-12T08:39:34.597Z,18.60
2023-04-12T08:42:08.626Z,18.60
2023-04-12T08:44:43.063Z,18.60
2023-04-12T08:47:16.443Z,18.60
2023-04-12T08:49:49.628Z,18.50
2023-04-12T08:52:22.600Z,18.50
2023-04-12T08:54:55.602Z,18.50
2023-04-12T08:57:30.624Z,18.50
2023-04-12T09:00:04.401Z,18.50
2023-04-12T09:02:38.646Z,18.50
2023-04-12T09:05:12.686Z,18.40
2023-04-12T09:07:46.268Z,18.40
2023-04-12T09:10:21.043Z,18.40
2023-04-12T09:12:54.088Z,18.40
2023-04-12T09:15:27.027Z,18.40
2023-04-12T09:18:11.230Z,18.40
2023-04-12T09:20:44.069Z,18.40
2023-04-12T09:23:26.978Z,18.40
2023-04-12T09:25:59.869Z,18.30
2023-04-12T09:28:33.435Z,18.30
2023-04-12T09:31:06.758Z,18.30
2023-04-12T09:33:43.313Z,18.30
2023-04-12T09:36:17.458Z,18.30
2023-04-12T09:39:09.339Z,18.30
2023-04-12T09:41:42.337Z,18.20
2023-04-12T09:44:17.327Z,18.20
2023-04-12T09:46:54.737Z,18.20
2023-04-12T09:49:38.256Z,18.20
2023-04-12T09:52:14.999Z,18.10
2023-04-12T09:54:51.730Z,18.10
2023-04-12T09:57:26.503Z,18.10
2023-04-12T10:00:00.569Z,18.10
2023-04-12T10:02:34.331Z,18.10
2023-04-12T10:05:08.088Z,18.10
2023-04-12T10:07:43.101Z,18.00
2023-04-12T10:10:18.174Z,18.00
2023-04-12T10:12:52.190Z,18.00
2023-04-12T10:15:25.411Z,18.00
2023-04-12T10:17:59.371Z,18.00
2023-04-12T10:20:32.465Z,18.00
2023-04-12T10:23:05.568Z,18.00
2023-04-12T10:25:38.831Z,18.00
2023-04-12T10:28:25.331Z,18.00
2023-04-12T10:31:00.821Z,18.00
2023-04-12T10:33:35.182Z,18.00
2023-04-12T10:36:09.788Z,17.90
2023-04-12T10:38:52.211Z,17.90
2023-04-12T10:41:26.809Z,17.90
2023-04-12T10:44:01.611Z,17.90
2023-04-12T10:46:45.989Z,17.90
2023-04-12T10:49:19.714Z,17.90
2023-04-12T10:52:06.852Z,17.90
2023-04-12T10:54:39.904Z,17.90
2023-04-12T10:57:14.923Z,17.90
2023-04-12T10:59:58.977Z,17.90
2023-04-12T11:02:32.416Z,17.90
2023-04-12T11:05:13.086Z,17.90
2023-04-12T11:07:47.687Z,17.90
2023-04-12T11:10:25.773Z,17.90
2023-04-12T11:12:59.153Z,17.90
2023-04-12T11:15:33.372Z,17.90
2023-04-12T11:18:07.709Z,17.90
2023-04-12T11:20:46.391Z,17.80
2023-04-12T11:23:20.727Z,17.80
2023-04-12T11:25:56.785Z,17.80
2023-04-12T11:28:31.819Z,17.80
2023-04-12T11:31:04.540Z,17.80
2023-04-12T11:33:41.657Z,17.80
2023-04-12T11:36:15.891Z,17.80
2023-04-12T11:38:49.683Z,17.80
2023-04-12T11:41:22.835Z,17.80
2023-04-12T11:43:56.015Z,17.80
2023-04-12T11:46:30.418Z,17.80
2023-04-12T11:49:04.304Z,17.80
2023-04-12T11:51:37.709Z,17.80
2023-04-12T11:54:13.302Z,17.80
2023-04-12T11:56:46.866Z,17.80
2023-04-12T11:59:19.751Z,17.80
2023-04-12T12:01:56.112Z,17.80
2023-04-12T12:04:29.456Z,17.80
2023-04-12T12:07:03.437Z,17.80
2023-04-12T12:09:36.751Z,17.80
2023-04-12T12:12:11.717Z,17.80
2023-04-12T12:14:44.747Z,17.70
2023-04-12T12:17:21.310Z,17.70
2023-04-12T12:19:54.436Z,17.70
2023-04-12T12:22:27.363Z,17.70
2023-04-12T12:25:04.413Z,17.70
2023-04-12T12:27:42.752Z,17.70
2023-04-12T12:30:16.587Z,17.70
2023-04-12T12:32:50.285Z,17.70
2023-04-12T12:35:23.223Z,17.70
2023-04-12T12:37:58.435Z,17.60
2023-04-12T12:40:35.002Z,17.60
2023-04-12T12:43:08.893Z,17.60
2023-04-12T12:45:42.524Z,17.60
2023-04-12T12:48:19.917Z,17.60
2023-04-12T12:50:54.223Z,17.60
2023-04-12T12:53:27.166Z,17.60
2023-04-12T12:56:00.154Z,17.50
2023-04-12T12:58:33.710Z,17.50
2023-04-12T13:01:06.668Z,17.50
2023-04-12T13:03:40.000Z,17.50
2023-04-12T13:06:13.763Z,17.50
2023-04-12T13:08:46.749Z,17.50
2023-04-12T13:11:24.169Z,17.50
2023-04-12T13:13:57.034Z,17.50
2023-04-12T13:16:30.002Z,17.50
2023-04-12T13:19:05.482Z,17.40
2023-04-12T13:21:38.129Z,17.40
2023-04-12T13:24:11.561Z,17.40
2023-04-12T13:26:45.151Z,17.40
2023-04-12T13:29:18.591Z,17.40
2023-04-12T13:31:52.388Z,17.40
2023-04-12T13:34:25.747Z,17.30
2023-04-12T13:36:58.815Z,17.30
2023-04-12T13:39:33.113Z,17.30
2023-04-12T13:42:07.084Z,17.30
2023-04-12T13:44:39.988Z,17.30
2023-04-12T13:47:13.033Z,17.30
2023-04-12T13:49:45.851Z,17.30
2023-04-12T13:52:18.815Z,17.30
2023-04-12T13:54:53.108Z,17.30
2023-04-12T13:57:26.096Z,17.30
2023-04-12T13:59:59.097Z,17.30
2023-04-12T14:02:33.028Z,17.30
2023-04-12T14:05:06.650Z,17.30
2023-04-12T14:07:39.475Z,17.30
2023-04-12T14:10:13.213Z,17.30
2023-04-12T14:12:46.046Z,17.30
2023-04-12T14:15:19.474Z,17.30
2023-04-12T14:17:52.331Z,17.30
2023-04-12T14:20:26.015Z,17.30
2023-04-12T14:22:58.817Z,17.30
2023-04-12T14:25:31.832Z,17.30
2023-04-12T14:28:08.744Z,17.30
2023-04-12T14:30:41.793Z,17.30
2023-04-12T14:33:15.406Z,17.30
2023-04-12T14:35:48.447Z,17.30
2023-04-12T14:38:21.588Z,17.30
2023-04-12T14:40:55.607Z,17.30
2023-04-12T14:43:28.856Z,17.30
2023-04-12T14:46:01.995Z,17.30
2023-04-12T14:48:34.945Z,17.30
2023-04-12T14:51:08.276Z,17.30
2023-04-12T14:53:40.899Z,17.30
2023-04-12T14:56:30.351Z,17.30
2023-04-12T14:59:02.608Z,17.30
2023-04-12T15:01:35.916Z,17.30
2023-04-12T15:04:09.210Z,17.30
2023-04-12T15:06:43.279Z,17.30
2023-04-12T15:09:18.250Z,17.30
2023-04-12T15:11:56.305Z,17.30
2023-04-12T15:14:29.331Z,17.40
2023-04-12T15:17:02.242Z,17.30
2023-04-12T15:19:36.019Z,17.40
2023-04-12T15:22:09.186Z,17.40
2023-04-12T15:24:41.961Z,17.40
2023-04-12T15:27:14.885Z,17.40
2023-04-12T15:29:48.059Z,17.40
2023-04-12T15:32:21.257Z,17.40
2023-04-12T15:34:54.467Z,17.40
2023-04-12T15:37:27.730Z,17.40
2023-04-12T15:40:00.918Z,17.40
2023-04-12T15:42:33.777Z,17.40
2023-04-12T15:45:06.811Z,17.40
2023-04-12T15:47:40.283Z,17.40
2023-04-12T15:50:14.617Z,17.40
2023-04-12T15:52:47.452Z,17.40
2023-04-12T15:55:22.140Z,17.40
2023-04-12T15:57:55.998Z,17.40
2023-04-12T16:00:30.555Z,17.40
2023-04-12T16:03:03.491Z,17.40
2023-04-12T16:05:37.100Z,17.40
2023-04-12T16:08:10.849Z,17.50
2023-04-12T16:10:43.789Z,17.50
2023-04-12T16:13:17.285Z,17.40
2023-04-12T16:15:50.393Z,17.50
2023-04-12T16:18:23.422Z,17.50
2023-04-12T16:20:56.458Z,17.50
2023-04-12T16:23:30.022Z,17.50
2023-04-12T16:26:03.115Z,17.50
2023-04-12T16:28:40.226Z,17.40
2023-04-12T16:31:13.547Z,17.40
2023-04-12T16:33:46.463Z,17.40
2023-04-12T16:36:19.602Z,17.40
2023-04-12T16:38:53.232Z,17.40
2023-04-12T16:41:30.438Z,17.40
2023-04-12T16:44:05.200Z,17.40
2023-04-12T16:46:38.565Z,17.40
2023-04-12T16:49:11.908Z,17.40
2023-04-12T16:51:45.320Z,17.40
2023-04-12T16:54:18.274Z,17.40
2023-04-12T16:56:51.407Z,17.40
2023-04-12T16:59:24.420Z,17.40
2023-04-12T17:01:57.271Z,17.50
2023-04-12T17:04:30.795Z,17.50
2023-04-12T17:07:04.217Z,17.50
2023-04-12T17:09:37.038Z,17.50
2023-04-12T17:12:10.491Z,17.50
2023-04-12T17:14:43.522Z,17.50
2023-04-12T17:17:16.796Z,17.50
2023-04-12T17:19:49.907Z,17.50
2023-04-12T17:22:23.089Z,17.50
2023-04-12T17:24:56.452Z,17.50
2023-04-12T17:27:30.054Z,17.50
2023-04-12T17:30:08.775Z,17.50
2023-04-12T17:32:42.240Z,17.50
2023-04-12T17:35:16.130Z,17.50
2023-04-12T17:37:49.567Z,17.60
2023-04-12T17:40:22.581Z,17.60
2023-04-12T17:42:56.037Z,17.60
2023-04-12T17:45:29.456Z,17.60
2023-04-12T17:48:02.581Z,17.50
2023-04-12T17:50:35.547Z,17.60
2023-04-12T17:53:08.398Z,17.60
2023-04-12T17:55:41.105Z,17.60
2023-04-12T17:58:14.488Z,17.60
2023-04-12T18:00:47.389Z,17.60
2023-04-12T18:03:20.704Z,17.60
2023-04-12T18:05:54.048Z,17.60
2023-04-12T18:08:26.933Z,17.60
2023-04-12T18:10:59.870Z,17.60
2023-04-12T18:13:32.936Z,17.60
2023-04-12T18:16:06.166Z,17.60
2023-04-12T18:18:39.428Z,17.60
2023-04-12T18:21:12.370Z,17.60
2023-04-12T18:23:44.973Z,17.60
2023-04-12T18:26:17.854Z,17.60
2023-04-12T18:28:51.270Z,17.60
2023-04-12T18:31:24.688Z,17.60
2023-04-12T18:33:57.955Z,17.60
2023-04-12T18:36:31.217Z,17.60
2023-04-12T18:39:06.948Z,17.60
2023-04-12T18:41:40.022Z,17.60
2023-04-12T18:44:14.262Z,17.70
2023-04-12T18:46:47.286Z,17.70
2023-04-12T18:49:20.336Z,17.70
2023-04-12T18:51:54.385Z,17.70
2023-04-12T18:54:28.482Z,17.70
2023-04-12T18:57:02.382Z,17.70
2023-04-12T18:59:35.349Z,17.80
2023-04-12T19:02:12.487Z,17.80
2023-04-12T19:04:45.954Z,17.80
2023-04-12T19:07:18.614Z,17.80
2023-04-12T19:09:51.461Z,17.80
2023-04-12T19:12:24.377Z,17.80
2023-04-12T19:14:57.096Z,17.90
2023-04-12T19:17:33.024Z,17.90
2023-04-12T19:20:06.404Z,17.90
2023-04-12T19:22:39.619Z,17.90
2023-04-12T19:25:13.468Z,17.90
2023-04-12T19:27:46.305Z,17.90
2023-04-12T19:30:19.756Z,18.00
2023-04-12T19:32:52.869Z,18.00
2023-04-12T19:35:25.911Z,18.00
2023-04-12T19:37:59.408Z,18.10
2023-04-12T19:40:32.305Z,18.10
2023-04-12T19:43:04.964Z,18.10
2023-04-12T19:45:38.127Z,18.20
2023-04-12T19:48:10.993Z,18.20
2023-04-12T19:50:44.582Z,18.30
2023-04-12T19:53:18.764Z,18.30
2023-04-12T19:55:51.942Z,18.30
2023-04-12T19:58:25.205Z,18.40
2023-04-12T20:00:58.194Z,18.40
2023-04-12T20:03:31.183Z,18.40
2023-04-12T20:06:05.061Z,18.40
2023-04-12T20:08:38.491Z,18.50
2023-04-12T20:11:11.410Z,18.50
2023-04-12T20:13:44.057Z,18.50
2023-04-12T20:16:17.609Z,18.50
2023-04-12T20:18:50.556Z,18.50
2023-04-12T20:21:23.550Z,18.60
2023-04-12T20:23:56.716Z,18.60
2023-04-12T20:26:36.075Z,18.60
2023-04-12T20:29:09.763Z,18.70
2023-04-12T20:31:42.762Z,18.70
2023-04-12T20:34:15.563Z,18.80
2023-04-12T20:36:48.403Z,18.80
2023-04-12T20:39:21.751Z,18.90
2023-04-12T20:42:17.183Z,19.00
2023-04-12T20:44:33.199Z,19.10
2023-04-12T20:47:06.451Z,19.20
2023-04-12T20:49:42.168Z,19.20
2023-04-12T20:52:16.569Z,19.30
2023-04-12T20:54:50.081Z,19.30
2023-04-12T20:57:23.094Z,19.40
2023-04-12T20:59:59.014Z,19.40
2023-04-12T21:02:32.101Z,19.40
2023-04-12T21:05:06.376Z,19.40
2023-04-12T21:07:39.426Z,19.50
2023-04-12T21:10:16.579Z,19.50
2023-04-12T21:12:49.253Z,19.50
2023-04-12T21:15:23.448Z,19.50
2023-04-12T21:17:56.773Z,19.50
2023-04-12T21:20:29.609Z,19.50
2023-04-12T21:23:02.641Z,19.60
2023-04-12T21:25:36.725Z,19.60
2023-04-12T21:28:09.627Z,19.60
2023-04-12T21:30:43.285Z,19.70
2023-04-12T21:33:22.952Z,19.70
2023-04-12T21:36:02.184Z,19.70
2023-04-12T21:38:35.105Z,19.70
2023-04-12T21:41:13.554Z,19.70
2023-04-12T21:43:47.893Z,19.70
2023-04-12T21:46:20.693Z,19.70
2023-04-12T21:48:53.581Z,19.80
2023-04-12T21:51:30.282Z,19.80
2023-04-12T21:54:03.238Z,19.90
2023-04-12T21:56:35.937Z,19.90
2023-04-12T21:59:09.009Z,19.90
2023-04-12T22:01:42.006Z,20.00
2023-04-12T22:04:14.783Z,20.10
2023-04-12T22:06:47.925Z,20.20
2023-04-12T22:09:25.068Z,20.20
2023-04-12T22:11:58.651Z,20.30
2023-04-12T22:14:31.593Z,20.30
2023-04-12T22:17:04.738Z,20.40
2023-04-12T22:19:37.488Z,20.40
2023-04-12T22:22:11.790Z,20.50
2023-04-12T22:24:47.761Z,20.50
2023-04-12T22:27:20.659Z,20.60
2023-04-12T22:29:53.674Z,20.60
2023-04-12T22:32:31.481Z,20.60
2023-04-12T22:35:08.337Z,20.70
2023-04-12T22:37:45.186Z,20.70
2023-04-12T22:40:18.178Z,20.70
2023-04-12T22:42:52.032Z,20.80
2023-04-12T22:45:25.564Z,20.80
2023-04-12T22:47:58.497Z,20.90
2023-04-12T22:50:31.483Z,20.90
2023-04-12T22:53:05.002Z,20.90
2023-04-12T22:55:38.651Z,20.90
2023-04-12T22:58:11.269Z,20.90
2023-04-12T23:00:48.507Z,20.90
2023-04-12T23:03:21.960Z,21.00
2023-04-12T23:05:54.733Z,21.00
2023-04-12T23:08:27.459Z,21.00
2023-04-12T23:11:01.875Z,21.00
2023-04-12T23:13:38.178Z,21.00
2023-04-12T23:16:12.118Z,21.10
2023-04-12T23:18:46.284Z,21.10
2023-04-12T23:21:19.319Z,21.10
2023-04-12T23:23:52.382Z,21.10
2023-04-12T23:26:25.251Z,21.10
2023-04-12T23:28:57.939Z,21.10
2023-04-12T23:31:30.724Z,21.10
2023-04-12T23:34:08.031Z,21.10
2023-04-12T23:36:40.874Z,21.10
2023-04-12T23:39:13.868Z,21.10
2023-04-12T23:41:51.686Z,21.10
2023-04-12T23:44:26.053Z,21.10
2023-04-12T23:46:59.034Z,21.10
2023-04-12T23:49:32.105Z,21.00
2023-04-12T23:52:04.938Z,21.00
2023-04-12T23:54:37.870Z,21.00
2023-04-12T23:57:10.691Z,21.00
2023-04-12T23:59:43.706Z,21.00
